Time;durP1;ratioP1;P1;durP2;ratioP2;P2;SDS_P1;SDS_P2;PMS_P1;PMS_P2;Temp;Humidity;BMP_temperature;BMP_pressure;BME280_temperature;BME280_humidity;BME280_pressure;Samples;Min_cycle;Max_cycle;Signal;HPM_P1;HPM_P2
2021/12/24 00:00:00;;;;;;;10.77;7.80;;;;;;;;;;5094451;28;20216;-47
2021/12/24 00:02:26;;;;;;;11.88;7.63;;;;;;;;;;5092037;28;20194;-47
2021/12/24 00:04:52;;;;;;;12.50;7.57;;;;;;;;;;5094920;28;20182;-47
2021/12/24 00:07:18;;;;;;;10.25;7.25;;;;;;;;;;5094764;28;20479;-48
2021/12/24 00:09:44;;;;;;;10.50;7.53;;;;;;;;;;5093006;28;20470;-47
2021/12/24 00:12:18;;;;;;;9.52;7.03;;;;;;;;;;5094212;28;20186;-47
2021/12/24 00:14:50;;;;;;;9.43;7.13;;;;;;;;;;5094004;28;20227;-47
2021/12/24 00:17:20;;;;;;;11.88;7.18;;;;;;;;;;5095131;28;20230;-47
2021/12/24 00:20:03;;;;;;;10.95;7.47;;;;;;;;;;5087345;28;20549;-47
2021/12/24 00:36:12;;;;;;;8.30;6.10;;;;;;;;;;5094494;28;20792;-47
2021/12/24 00:38:38;;;;;;;7.05;6.05;;;;;;;;;;5094252;28;20186;-47
2021/12/24 00:41:05;;;;;;;8.32;5.88;;;;;;;;;;5095266;28;20235;-47
2021/12/24 00:43:32;;;;;;;6.35;5.43;;;;;;;;;;5092299;28;20727;-47
2021/12/24 00:45:57;;;;;;;8.57;6.15;;;;;;;;;;5092384;28;20192;-47
2021/12/24 00:48:23;;;;;;;7.82;6.00;;;;;;;;;;5118158;27;20212;-47
2021/12/24 00:55:59;;;;;;;7.13;5.78;;;;;;;;;;5108739;28;20555;-47
2021/12/24 00:58:25;;;;;;;6.50;5.32;;;;;;;;;;5113294;28;20225;-47
2021/12/24 01:00:51;;;;;;;7.97;5.43;;;;;;;;;;5115102;28;20541;-47
2021/12/24 01:03:17;;;;;;;8.63;5.20;;;;;;;;;;5114216;28;20200;-47
2021/12/24 01:05:43;;;;;;;5.68;5.03;;;;;;;;;;5109102;28;20263;-47
2021/12/24 01:08:11;;;;;;;6.03;4.93;;;;;;;;;;5112863;28;20220;-47
2021/12/24 01:10:40;;;;;;;6.15;4.93;;;;;;;;;;5113515;28;20267;-47
2021/12/24 01:13:06;;;;;;;6.13;5.03;;;;;;;;;;5114508;28;20192;-47
2021/12/24 01:15:35;;;;;;;6.40;4.75;;;;;;;;;;5115410;27;20192;-47
2021/12/24 01:18:10;;;;;;;5.38;4.55;;;;;;;;;;5114967;28;20187;-47
2021/12/24 01:20:50;;;;;;;6.13;4.88;;;;;;;;;;5113556;28;20173;-47
2021/12/24 01:23:38;;;;;;;6.43;4.47;;;;;;;;;;5110884;28;20226;-47
2021/12/24 01:26:10;;;;;;;4.55;4.15;;;;;;;;;;5113820;28;20177;-47
2021/12/24 01:28:47;;;;;;;5.15;4.57;;;;;;;;;;5114804;28;20326;-47
2021/12/24 01:44:57;;;;;;;4.65;3.65;;;;;;;;;;5113520;28;20519;-47
2021/12/24 01:47:24;;;;;;;4.00;3.42;;;;;;;;;;5110252;28;20200;-47
2021/12/24 01:49:50;;;;;;;4.30;3.90;;;;;;;;;;5105033;28;20208;-47
2021/12/24 01:52:16;;;;;;;3.30;3.00;;;;;;;;;;5102238;28;20212;-47
2021/12/24 01:54:43;;;;;;;3.50;3.20;;;;;;;;;;5112947;28;20187;-47
2021/12/24 01:57:09;;;;;;;4.32;3.47;;;;;;;;;;5100191;28;20225;-47
2021/12/24 01:59:35;;;;;;;3.97;3.28;;;;;;;;;;5092403;28;20235;-47
2021/12/24 02:02:01;;;;;;;3.88;3.10;;;;;;;;;;5094518;28;20197;-47
2021/12/24 02:04:28;;;;;;;3.50;3.20;;;;;;;;;;5102523;28;20187;-47
2021/12/24 02:06:54;;;;;;;3.20;2.88;;;;;;;;;;5102426;28;20191;-47
2021/12/24 02:09:20;;;;;;;3.28;2.97;;;;;;;;;;5101557;28;20479;-47
2021/12/24 02:11:46;;;;;;;3.60;2.90;;;;;;;;;;5100707;28;20229;-47
2021/12/24 02:14:15;;;;;;;2.80;2.60;;;;;;;;;;5096929;28;20189;-47
2021/12/24 02:17:05;;;;;;;5.07;2.80;;;;;;;;;;5103745;28;20234;-47
2021/12/24 02:30:31;;;;;;;2.42;2.22;;;;;;;;;;5093372;28;20443;-47
2021/12/24 02:32:57;;;;;;;2.65;2.45;;;;;;;;;;5107885;28;20260;-47
2021/12/24 02:35:23;;;;;;;4.88;2.50;;;;;;;;;;5101620;28;20229;-47
2021/12/24 02:37:50;;;;;;;4.00;2.55;;;;;;;;;;5092213;28;20177;-47
2021/12/24 02:40:16;;;;;;;3.70;2.67;;;;;;;;;;5093248;28;20197;-47
2021/12/24 02:42:49;;;;;;;2.50;2.30;;;;;;;;;;5102675;28;20424;-47
2021/12/24 02:45:15;;;;;;;2.53;2.33;;;;;;;;;;5093632;28;20181;-47
2021/12/24 02:55:27;;;;;;;2.22;2.10;;;;;;;;;;5083368;28;20467;-47
2021/12/24 02:57:53;;;;;;;2.22;1.98;;;;;;;;;;5091042;28;20182;-47
2021/12/24 03:00:25;;;;;;;2.30;2.10;;;;;;;;;;5090787;28;20202;-47
2021/12/24 03:02:51;;;;;;;2.15;1.98;;;;;;;;;;5087814;28;20178;-47
2021/12/24 03:05:17;;;;;;;2.58;2.20;;;;;;;;;;5088742;28;20564;-47
2021/12/24 03:07:44;;;;;;;2.40;2.20;;;;;;;;;;5090581;28;20182;-47
2021/12/24 03:10:16;;;;;;;2.50;2.08;;;;;;;;;;5092773;28;20186;-47
2021/12/24 03:12:45;;;;;;;2.15;1.95;;;;;;;;;;5092357;28;20181;-47
2021/12/24 03:15:13;;;;;;;2.03;1.83;;;;;;;;;;5090459;28;20181;-47
2021/12/24 03:17:39;;;;;;;2.00;1.80;;;;;;;;;;5083345;28;20174;-47
2021/12/24 03:20:09;;;;;;;1.85;1.75;;;;;;;;;;5092662;28;20185;-47
2021/12/24 03:25:11;;;;;;;2.35;1.77;;;;;;;;;;5091416;28;20227;-47
2021/12/24 03:27:37;;;;;;;1.83;1.73;;;;;;;;;;5090174;28;20217;-47
2021/12/24 03:30:04;;;;;;;2.45;2.10;;;;;;;;;;5091050;28;20206;-47
2021/12/24 03:32:30;;;;;;;2.35;2.15;;;;;;;;;;5089278;28;20182;-47
2021/12/24 03:34:56;;;;;;;2.63;1.90;;;;;;;;;;5091418;28;20177;-47
2021/12/24 03:37:22;;;;;;;1.98;1.80;;;;;;;;;;5091997;28;20182;-47
2021/12/24 03:39:48;;;;;;;2.08;1.88;;;;;;;;;;5091368;28;20305;-47
2021/12/24 03:42:14;;;;;;;1.92;1.80;;;;;;;;;;5091348;28;20612;-47
2021/12/24 03:44:50;;;;;;;2.00;1.80;;;;;;;;;;5091036;28;20182;-47
2021/12/24 03:47:19;;;;;;;2.20;1.98;;;;;;;;;;5090561;28;20576;-47
2021/12/24 03:50:01;;;;;;;1.95;1.83;;;;;;;;;;5086755;28;20591;-47
2021/12/24 03:54:57;;;;;;;1.80;1.70;;;;;;;;;;5093347;28;20537;-47
2021/12/24 03:57:35;;;;;;;2.33;2.13;;;;;;;;;;5099233;28;20184;-47
2021/12/24 04:00:22;;;;;;;2.83;1.85;;;;;;;;;;5098240;28;20265;-47
2021/12/24 04:02:48;;;;;;;1.88;1.77;;;;;;;;;;5095745;28;20204;-47
2021/12/24 04:05:14;;;;;;;2.00;1.90;;;;;;;;;;5097329;28;20255;-47
2021/12/24 04:07:40;;;;;;;1.85;1.75;;;;;;;;;;5094778;28;20185;-47
2021/12/24 04:10:18;;;;;;;1.70;1.60;;;;;;;;;;5100305;28;20763;-47
2021/12/24 04:12:44;;;;;;;2.05;1.65;;;;;;;;;;5100673;28;20173;-47
2021/12/24 04:15:10;;;;;;;1.70;1.60;;;;;;;;;;5106104;28;20288;-47
2021/12/24 04:17:39;;;;;;;1.80;1.70;;;;;;;;;;5107125;28;20231;-47
2021/12/24 04:25:48;;;;;;;1.75;1.60;;;;;;;;;;5102016;28;20511;-47
2021/12/24 04:28:14;;;;;;;1.95;1.70;;;;;;;;;;5093297;28;20209;-47
2021/12/24 04:30:46;;;;;;;2.50;1.77;;;;;;;;;;5099518;28;20234;-47
2021/12/24 04:33:27;;;;;;;1.50;1.40;;;;;;;;;;5104670;28;20177;-47
2021/12/24 04:35:59;;;;;;;1.83;1.70;;;;;;;;;;5107266;28;20180;-47
2021/12/24 04:39:02;;;;;;;1.65;1.55;;;;;;;;;;5107302;28;20212;-47
2021/12/24 05:03:10;;;;;;;1.92;1.83;;;;;;;;;;5103483;28;20192;-47
2021/12/24 05:05:50;;;;;;;1.50;1.40;;;;;;;;;;5103880;28;20196;-47
2021/12/24 05:08:24;;;;;;;1.88;1.63;;;;;;;;;;5098693;28;20270;-47
2021/12/24 05:10:51;;;;;;;1.60;1.50;;;;;;;;;;5096211;28;20256;-47
2021/12/24 05:13:18;;;;;;;1.45;1.35;;;;;;;;;;5099250;28;20174;-47
2021/12/24 05:15:48;;;;;;;1.30;1.20;;;;;;;;;;5101877;28;20223;-47
2021/12/24 05:23:28;;;;;;;1.90;1.50;;;;;;;;;;5098570;28;20548;-47
2021/12/24 05:25:54;;;;;;;1.50;1.40;;;;;;;;;;5099178;28;20178;-47
2021/12/24 05:28:21;;;;;;;1.60;1.50;;;;;;;;;;5103098;28;20707;-47
2021/12/24 05:30:47;;;;;;;1.70;1.60;;;;;;;;;;5095776;28;20177;-47
2021/12/24 05:33:15;;;;;;;1.70;1.60;;;;;;;;;;5100563;28;20576;-47
2021/12/24 05:35:43;;;;;;;1.83;1.50;;;;;;;;;;5103760;28;20181;-47
2021/12/24 05:38:09;;;;;;;1.63;1.52;;;;;;;;;;5102158;28;20189;-47
2021/12/24 05:40:35;;;;;;;1.52;1.42;;;;;;;;;;5105513;28;20197;-47
2021/12/24 05:43:01;;;;;;;1.50;1.40;;;;;;;;;;5104398;28;21894;-47
2021/12/24 05:45:27;;;;;;;1.83;1.55;;;;;;;;;;5104221;28;20185;-47
2021/12/24 05:47:53;;;;;;;1.30;1.20;;;;;;;;;;5100609;28;20248;-47
2021/12/24 05:50:19;;;;;;;1.50;1.40;;;;;;;;;;5092447;28;20225;-47
2021/12/24 05:52:45;;;;;;;1.60;1.50;;;;;;;;;;5104641;28;20192;-47
2021/12/24 05:55:11;;;;;;;1.58;1.48;;;;;;;;;;5085764;28;20228;-47
2021/12/24 05:57:37;;;;;;;1.80;1.70;;;;;;;;;;5098047;28;20457;-47
2021/12/24 06:00:05;;;;;;;1.50;1.40;;;;;;;;;;5095386;28;20178;-47
2021/12/24 06:02:32;;;;;;;1.60;1.50;;;;;;;;;;5096416;28;20610;-47
2021/12/24 06:04:58;;;;;;;1.60;1.50;;;;;;;;;;5090339;28;20190;-48
2021/12/24 06:07:24;;;;;;;1.42;1.33;;;;;;;;;;5089701;28;20193;-47
2021/12/24 06:09:50;;;;;;;1.73;1.63;;;;;;;;;;5101009;28;20201;-47
2021/12/24 06:12:16;;;;;;;1.50;1.40;;;;;;;;;;5099638;28;20268;-47
2021/12/24 06:14:45;;;;;;;2.22;1.67;;;;;;;;;;5105896;28;20274;-47
2021/12/24 06:17:15;;;;;;;1.52;1.42;;;;;;;;;;5073440;28;20186;-47
2021/12/24 06:19:42;;;;;;;1.58;1.48;;;;;;;;;;5088331;28;20517;-47
2021/12/24 06:22:08;;;;;;;1.58;1.48;;;;;;;;;;5102847;28;20318;-47
2021/12/24 06:24:34;;;;;;;1.60;1.40;;;;;;;;;;5097743;28;20205;-47
2021/12/24 06:27:00;;;;;;;1.70;1.60;;;;;;;;;;5084790;28;20196;-47
2021/12/24 06:29:26;;;;;;;1.52;1.42;;;;;;;;;;5079186;28;20223;-47
2021/12/24 06:31:52;;;;;;;1.60;1.50;;;;;;;;;;5099200;28;20237;-47
2021/12/24 06:34:19;;;;;;;1.80;1.60;;;;;;;;;;5109409;28;20598;-47
2021/12/24 06:36:48;;;;;;;1.60;1.45;;;;;;;;;;5098965;28;20186;-47
2021/12/24 06:39:14;;;;;;;1.60;1.50;;;;;;;;;;5105490;28;20182;-47
2021/12/24 06:41:40;;;;;;;1.25;1.20;;;;;;;;;;5096152;28;20199;-47
2021/12/24 06:44:09;;;;;;;2.22;1.50;;;;;;;;;;5079673;28;20185;-47
2021/12/24 06:46:36;;;;;;;1.60;1.50;;;;;;;;;;5107728;28;20188;-47
2021/12/24 06:49:02;;;;;;;2.22;1.50;;;;;;;;;;5098000;28;20217;-47
2021/12/24 06:51:29;;;;;;;1.55;1.45;;;;;;;;;;5096794;28;20230;-47
2021/12/24 06:53:55;;;;;;;1.75;1.60;;;;;;;;;;5108280;28;20265;-47
2021/12/24 06:56:21;;;;;;;1.98;1.63;;;;;;;;;;5104252;28;20181;-47
2021/12/24 06:58:47;;;;;;;1.50;1.40;;;;;;;;;;5101215;28;20212;-47
2021/12/24 07:01:14;;;;;;;1.40;1.30;;;;;;;;;;5099920;28;20235;-47
2021/12/24 07:03:40;;;;;;;1.73;1.33;;;;;;;;;;5110405;28;20827;-47
2021/12/24 07:06:06;;;;;;;1.60;1.50;;;;;;;;;;5104869;28;20276;-47
2021/12/24 07:08:32;;;;;;;1.60;1.50;;;;;;;;;;5108776;28;20292;-47
2021/12/24 07:10:58;;;;;;;1.67;1.30;;;;;;;;;;5104219;28;20185;-47
2021/12/24 07:13:25;;;;;;;1.95;1.40;;;;;;;;;;5104821;28;20192;-47
2021/12/24 07:15:51;;;;;;;2.20;1.58;;;;;;;;;;5096967;28;20496;-47
2021/12/24 07:18:17;;;;;;;1.48;1.38;;;;;;;;;;5102267;28;20185;-47
2021/12/24 07:20:42;;;;;;;1.50;1.40;;;;;;;;;;5097301;28;20302;-47
2021/12/24 07:23:09;;;;;;;2.92;1.52;;;;;;;;;;5097268;28;20197;-47
2021/12/24 07:25:35;;;;;;;10.05;2.28;;;;;;;;;;5099245;28;20564;-48
2021/12/24 07:28:01;;;;;;;3.17;2.30;;;;;;;;;;5084640;28;20186;-47
2021/12/24 07:30:28;;;;;;;4.68;2.38;;;;;;;;;;5100240;28;20189;-47
2021/12/24 07:32:54;;;;;;;4.90;2.25;;;;;;;;;;5110124;28;20591;-47
2021/12/24 07:35:21;;;;;;;4.30;1.92;;;;;;;;;;5099401;28;20182;-48
2021/12/24 07:37:47;;;;;;;5.72;2.30;;;;;;;;;;5095205;28;20179;-43
2021/12/24 07:40:15;;;;;;;3.25;2.30;;;;;;;;;;5109575;28;20242;-47
2021/12/24 07:42:42;;;;;;;4.40;1.92;;;;;;;;;;5097995;28;20185;-47
2021/12/24 07:45:09;;;;;;;2.65;1.70;;;;;;;;;;5105682;28;20180;-47
2021/12/24 07:47:39;;;;;;;3.88;2.03;;;;;;;;;;5092802;28;20213;-47
2021/12/24 07:52:57;;;;;;;4.22;1.92;;;;;;;;;;5066391;28;20194;-47
2021/12/24 07:55:23;;;;;;;4.65;2.17;;;;;;;;;;5093599;28;20287;-47
2021/12/24 07:57:51;;;;;;;2.78;1.90;;;;;;;;;;5095077;28;20213;-47
2021/12/24 08:00:18;;;;;;;6.35;2.17;;;;;;;;;;5096088;28;20182;-47
2021/12/24 08:02:45;;;;;;;2.88;1.85;;;;;;;;;;5090535;28;20254;-47
2021/12/24 08:05:13;;;;;;;3.92;2.10;;;;;;;;;;5089269;28;20777;-47
2021/12/24 08:07:40;;;;;;;2.10;1.90;;;;;;;;;;5087493;28;20186;-51
2021/12/24 08:10:06;;;;;;;9.43;2.00;;;;;;;;;;5086789;28;20224;-46
2021/12/24 08:12:32;;;;;;;3.63;2.08;;;;;;;;;;5070534;28;20181;-48
2021/12/24 08:14:58;;;;;;;3.38;2.25;;;;;;;;;;5093154;28;20191;-48
2021/12/24 08:17:24;;;;;;;5.07;2.20;;;;;;;;;;5094843;28;20197;-48
2021/12/24 08:19:50;;;;;;;4.57;2.05;;;;;;;;;;5094231;28;20190;-48
2021/12/24 08:22:16;;;;;;;2.55;1.90;;;;;;;;;;5093573;28;20254;-48
2021/12/24 08:24:42;;;;;;;3.25;1.70;;;;;;;;;;5093578;28;20201;-48
2021/12/24 08:27:09;;;;;;;4.53;1.98;;;;;;;;;;5085586;28;20214;-48
2021/12/24 08:29:35;;;;;;;4.70;1.75;;;;;;;;;;5091270;28;20284;-48
2021/12/24 08:32:03;;;;;;;3.97;1.90;;;;;;;;;;5090679;28;20444;-48
2021/12/24 08:34:30;;;;;;;5.75;2.28;;;;;;;;;;5093726;28;20260;-48
2021/12/24 08:36:56;;;;;;;4.45;2.00;;;;;;;;;;5088016;28;20185;-48
2021/12/24 08:39:22;;;;;;;2.97;1.60;;;;;;;;;;5094183;28;20178;-48
2021/12/24 08:41:52;;;;;;;3.40;1.67;;;;;;;;;;5092026;28;20182;-48
2021/12/24 08:44:18;;;;;;;4.10;1.73;;;;;;;;;;5090389;28;20185;-49
2021/12/24 08:46:44;;;;;;;5.75;2.40;;;;;;;;;;5081907;27;20196;-48
2021/12/24 08:49:11;;;;;;;4.43;1.80;;;;;;;;;;5119668;27;20591;-48
2021/12/24 08:51:37;;;;;;;4.90;1.60;;;;;;;;;;5112325;28;20200;-48
2021/12/24 08:54:03;;;;;;;4.50;1.70;;;;;;;;;;5125307;27;20286;-48
2021/12/24 08:56:29;;;;;;;4.88;1.83;;;;;;;;;;5097328;28;20197;-48
2021/12/24 08:58:56;;;;;;;3.83;1.80;;;;;;;;;;5095931;28;20687;-48
2021/12/24 09:01:22;;;;;;;2.95;1.60;;;;;;;;;;5120675;27;20460;-48
2021/12/24 09:03:48;;;;;;;3.55;1.90;;;;;;;;;;5118783;27;20181;-48
2021/12/24 09:06:15;;;;;;;3.97;1.55;;;;;;;;;;5122196;27;20188;-48
2021/12/24 09:08:43;;;;;;;2.63;1.63;;;;;;;;;;5094347;27;20608;-48
2021/12/24 09:11:09;;;;;;;3.50;1.50;;;;;;;;;;5088450;28;20181;-48
2021/12/24 09:13:35;;;;;;;2.70;1.60;;;;;;;;;;5113953;27;20170;-48
2021/12/24 09:16:01;;;;;;;4.18;1.67;;;;;;;;;;5111173;27;20235;-48
2021/12/24 09:18:27;;;;;;;2.17;1.45;;;;;;;;;;5111303;28;20213;-48
2021/12/24 09:20:55;;;;;;;3.22;1.48;;;;;;;;;;5108009;27;20185;-49
2021/12/24 09:23:22;;;;;;;2.42;1.50;;;;;;;;;;5118015;27;20180;-48
2021/12/24 09:25:48;;;;;;;1.98;1.60;;;;;;;;;;5112368;27;20176;-48
2021/12/24 09:28:14;;;;;;;2.20;1.45;;;;;;;;;;5113904;27;20580;-48
2021/12/24 09:30:40;;;;;;;2.67;1.67;;;;;;;;;;5108792;28;20319;-48
2021/12/24 09:33:07;;;;;;;2.72;1.40;;;;;;;;;;5110659;27;20181;-48
2021/12/24 09:35:33;;;;;;;4.25;1.58;;;;;;;;;;5108722;27;20185;-48
2021/12/24 09:37:59;;;;;;;37.58;19.52;;;;;;;;;;5091552;28;20185;-48
2021/12/24 09:40:26;;;;;;;35.33;15.82;;;;;;;;;;5089242;28;20203;-48
2021/12/24 09:42:52;;;;;;;81.70;36.47;;;;;;;;;;5111474;28;20174;-48
2021/12/24 09:45:18;;;;;;;240.05;95.80;;;;;;;;;;5114166;27;20193;-48
2021/12/24 09:47:45;;;;;;;541.47;263.65;;;;;;;;;;5114178;27;20299;-48
2021/12/24 09:50:13;;;;;;;1443.90;759.00;;;;;;;;;;5107056;27;20222;-48
2021/12/24 09:52:40;;;;;;;1450.63;791.13;;;;;;;;;;5109080;28;20260;-48
2021/12/24 09:55:08;;;;;;;1180.72;685.42;;;;;;;;;;5110735;28;20232;-48
2021/12/24 09:57:34;;;;;;;842.47;514.60;;;;;;;;;;5105820;28;20207;-48
2021/12/24 10:00:00;;;;;;;825.08;497.17;;;;;;;;;;5110318;27;20221;-48
2021/12/24 10:02:39;;;;;;;808.88;497.33;;;;;;;;;;5105698;28;20181;-48
2021/12/24 10:05:20;;;;;;;748.63;454.00;;;;;;;;;;5105350;28;20226;-49
2021/12/24 10:07:46;;;;;;;631.25;385.30;;;;;;;;;;5105868;28;20192;-49
2021/12/24 10:10:12;;;;;;;597.92;354.33;;;;;;;;;;5104429;28;20209;-49
2021/12/24 10:12:38;;;;;;;569.58;337.15;;;;;;;;;;5103373;28;20468;-49
2021/12/24 10:15:04;;;;;;;510.02;285.83;;;;;;;;;;5105783;28;20185;-49
2021/12/24 10:17:31;;;;;;;465.15;267.52;;;;;;;;;;5106521;28;20519;-49
2021/12/24 10:19:59;;;;;;;476.25;267.77;;;;;;;;;;5103570;28;20184;-49
2021/12/24 10:22:25;;;;;;;461.90;254.25;;;;;;;;;;5101233;28;20191;-49
2021/12/24 10:25:01;;;;;;;426.58;233.90;;;;;;;;;;5106408;28;20204;-49
2021/12/24 10:27:28;;;;;;;407.15;215.60;;;;;;;;;;5101937;28;20188;-49
2021/12/24 10:29:55;;;;;;;394.48;198.50;;;;;;;;;;5111402;28;20274;-49
2021/12/24 10:32:20;;;;;;;364.90;184.10;;;;;;;;;;5110140;28;20590;-49
2021/12/24 10:34:47;;;;;;;343.70;173.25;;;;;;;;;;5110394;28;20181;-49
2021/12/24 10:37:24;;;;;;;345.75;169.15;;;;;;;;;;5111669;28;20272;-49
2021/12/24 10:39:53;;;;;;;275.27;138.43;;;;;;;;;;5110614;28;20735;-49
2021/12/24 10:42:26;;;;;;;248.05;126.45;;;;;;;;;;5111554;28;20223;-49
2021/12/24 10:44:53;;;;;;;236.60;117.47;;;;;;;;;;5113090;28;20181;-49
2021/12/24 10:47:20;;;;;;;234.98;116.63;;;;;;;;;;5099125;28;20201;-49
2021/12/24 10:52:16;;;;;;;211.35;103.97;;;;;;;;;;5089841;28;20572;-49
2021/12/24 10:54:56;;;;;;;189.27;98.93;;;;;;;;;;5091766;28;20181;-49
2021/12/24 10:57:33;;;;;;;171.27;89.43;;;;;;;;;;5088162;28;20284;-49
2021/12/24 11:00:00;;;;;;;161.73;84.20;;;;;;;;;;5092326;28;20181;-49
2021/12/24 11:02:30;;;;;;;162.88;83.65;;;;;;;;;;5090747;28;20186;-49
2021/12/24 11:04:56;;;;;;;149.63;78.40;;;;;;;;;;5090462;28;20181;-49
2021/12/24 11:07:37;;;;;;;154.05;77.65;;;;;;;;;;5091033;28;20185;-49
2021/12/24 11:10:09;;;;;;;141.30;70.47;;;;;;;;;;5089779;28;20218;-49
2021/12/24 11:12:42;;;;;;;124.25;63.83;;;;;;;;;;5089774;28;20176;-50
2021/12/24 11:15:20;;;;;;;122.72;62.10;;;;;;;;;;5089858;28;20186;-49
2021/12/24 11:17:47;;;;;;;113.25;58.05;;;;;;;;;;5095919;28;20288;-49
2021/12/24 11:20:13;;;;;;;120.35;60.20;;;;;;;;;;5096130;28;20197;-49
2021/12/24 11:22:53;;;;;;;108.38;56.33;;;;;;;;;;5094914;28;20193;-49
2021/12/24 11:25:20;;;;;;;104.97;54.05;;;;;;;;;;5094483;28;20185;-49
2021/12/24 11:27:46;;;;;;;96.30;52.85;;;;;;;;;;5092406;28;20178;-49
2021/12/24 11:30:12;;;;;;;99.43;51.58;;;;;;;;;;5096465;28;20208;-49
2021/12/24 11:32:39;;;;;;;111.10;54.75;;;;;;;;;;5090330;28;20232;-49
2021/12/24 11:35:06;;;;;;;105.72;51.70;;;;;;;;;;5094936;28;20205;-49
2021/12/24 11:37:32;;;;;;;98.68;51.72;;;;;;;;;;5074437;28;20180;-49
2021/12/24 11:39:59;;;;;;;94.43;49.60;;;;;;;;;;5095720;28;20177;-49
2021/12/24 11:42:31;;;;;;;101.85;51.42;;;;;;;;;;5094405;28;20186;-49
2021/12/24 11:44:57;;;;;;;93.63;48.67;;;;;;;;;;5093485;28;20234;-49
2021/12/24 11:47:23;;;;;;;94.43;45.95;;;;;;;;;;5101122;28;20588;-49
2021/12/24 11:49:49;;;;;;;88.70;46.10;;;;;;;;;;5106768;28;20330;-49
2021/12/24 11:52:15;;;;;;;86.28;44.83;;;;;;;;;;5104008;28;20268;-49
2021/12/24 11:54:42;;;;;;;88.20;44.35;;;;;;;;;;5103399;28;20193;-49
2021/12/24 11:57:22;;;;;;;69.13;36.65;;;;;;;;;;5104827;28;20201;-49
2021/12/24 11:59:49;;;;;;;70.45;39.08;;;;;;;;;;5104195;28;20184;-49
2021/12/24 12:02:34;;;;;;;68.18;37.60;;;;;;;;;;5102760;28;20201;-49
2021/12/24 12:05:18;;;;;;;67.47;35.17;;;;;;;;;;5093754;28;20180;-49
2021/12/24 12:07:45;;;;;;;69.55;34.15;;;;;;;;;;5103588;28;20181;-49
2021/12/24 12:10:12;;;;;;;72.97;36.70;;;;;;;;;;5110451;28;20231;-49
2021/12/24 12:12:39;;;;;;;86.90;40.05;;;;;;;;;;5102081;28;20174;-49
2021/12/24 12:15:24;;;;;;;95.20;42.65;;;;;;;;;;5100677;28;20560;-49
2021/12/24 12:17:54;;;;;;;102.57;45.03;;;;;;;;;;5091576;28;20217;-49
2021/12/24 12:20:56;;;;;;;103.18;42.58;;;;;;;;;;5108549;28;20193;-49
2021/12/24 12:23:47;;;;;;;86.13;39.20;;;;;;;;;;5091502;28;20193;-49
2021/12/24 12:26:31;;;;;;;94.63;38.83;;;;;;;;;;5102706;28;20645;-49
2021/12/24 12:29:15;;;;;;;83.13;37.55;;;;;;;;;;5092747;28;20202;-49
2021/12/24 12:31:41;;;;;;;83.18;36.70;;;;;;;;;;5085807;28;20178;-49
2021/12/24 12:34:26;;;;;;;82.95;35.55;;;;;;;;;;5102994;28;20511;-49
2021/12/24 12:36:52;;;;;;;74.00;35.08;;;;;;;;;;5098644;28;20212;-49
2021/12/24 12:39:27;;;;;;;72.93;33.63;;;;;;;;;;5103067;28;20232;-49
2021/12/24 12:41:53;;;;;;;68.68;33.05;;;;;;;;;;5098960;28;20487;-49
2021/12/24 12:44:19;;;;;;;60.75;30.15;;;;;;;;;;5105321;28;20193;-49
2021/12/24 12:46:51;;;;;;;62.08;30.85;;;;;;;;;;5104217;28;20277;-49
2021/12/24 12:49:21;;;;;;;58.92;29.33;;;;;;;;;;5100669;28;20258;-49
2021/12/24 12:51:48;;;;;;;58.80;28.15;;;;;;;;;;5111980;28;20501;-49
2021/12/24 12:54:33;;;;;;;52.22;26.77;;;;;;;;;;5105201;28;20182;-49
2021/12/24 12:57:12;;;;;;;52.50;26.17;;;;;;;;;;5101536;28;20215;-49
2021/12/24 12:59:39;;;;;;;48.45;24.30;;;;;;;;;;5104064;28;20260;-49
2021/12/24 13:02:05;;;;;;;46.00;24.83;;;;;;;;;;5106551;28;20189;-49
2021/12/24 13:04:31;;;;;;;45.80;22.85;;;;;;;;;;5099934;28;20202;-49
2021/12/24 13:06:58;;;;;;;39.35;21.67;;;;;;;;;;5094119;28;20185;-49
2021/12/24 13:09:37;;;;;;;39.30;21.23;;;;;;;;;;5091209;28;20250;-49
2021/12/24 13:12:04;;;;;;;37.88;20.98;;;;;;;;;;5078320;28;20511;-49
2021/12/24 13:14:31;;;;;;;36.35;18.60;;;;;;;;;;5097210;28;20239;-49
2021/12/24 13:19:59;;;;;;;33.17;18.73;;;;;;;;;;5100275;28;20199;-49
2021/12/24 13:22:32;;;;;;;33.50;17.70;;;;;;;;;;5108813;28;20271;-49
2021/12/24 13:25:05;;;;;;;34.97;18.17;;;;;;;;;;5093859;28;20587;-49
2021/12/24 13:27:39;;;;;;;27.98;16.30;;;;;;;;;;5104225;28;20209;-49
2021/12/24 13:30:05;;;;;;;31.63;17.58;;;;;;;;;;5102061;28;20509;-49
2021/12/24 13:32:31;;;;;;;27.52;16.90;;;;;;;;;;5109589;28;20208;-49
2021/12/24 13:34:58;;;;;;;33.67;18.13;;;;;;;;;;5095225;28;20180;-49
2021/12/24 13:37:30;;;;;;;29.98;16.73;;;;;;;;;;5089684;28;20186;-49
2021/12/24 13:39:56;;;;;;;29.73;16.35;;;;;;;;;;5101936;28;20264;-49
2021/12/24 13:42:22;;;;;;;29.42;17.15;;;;;;;;;;5102773;28;20627;-49
2021/12/24 13:44:49;;;;;;;29.80;16.60;;;;;;;;;;5105795;28;20200;-49
2021/12/24 13:47:26;;;;;;;27.63;16.08;;;;;;;;;;5099901;28;20572;-49
2021/12/24 13:54:31;;;;;;;29.25;15.32;;;;;;;;;;5092426;28;20213;-49
2021/12/24 13:55:38;;;;;;;29.67;15.88;;;;;;;;;;5055992;28;20182;-49
2021/12/24 13:58:06;;;;;;;28.08;15.95;;;;;;;;;;5087645;28;20658;-49
2021/12/24 14:00:33;;;;;;;29.25;15.75;;;;;;;;;;5093617;28;20197;-49
2021/12/24 14:03:03;;;;;;;25.30;13.68;;;;;;;;;;5089961;28;20254;-48
2021/12/24 14:05:29;;;;;;;23.25;13.57;;;;;;;;;;5093730;28;20700;-48
2021/12/24 14:08:06;;;;;;;23.30;13.35;;;;;;;;;;5090363;28;20536;-48
2021/12/24 14:10:32;;;;;;;22.73;13.65;;;;;;;;;;5092047;28;20193;-49
2021/12/24 14:13:05;;;;;;;24.08;13.68;;;;;;;;;;5092741;28;20198;-49
2021/12/24 14:15:41;;;;;;;22.50;13.23;;;;;;;;;;5092407;28;20230;-49
2021/12/24 14:18:29;;;;;;;20.10;12.40;;;;;;;;;;5092018;28;20575;-49
2021/12/24 14:23:30;;;;;;;18.35;11.32;;;;;;;;;;5090022;28;20448;-49
2021/12/24 14:25:57;;;;;;;22.45;12.20;;;;;;;;;;5074157;28;20174;-49
2021/12/24 14:28:24;;;;;;;17.20;11.43;;;;;;;;;;5090853;28;20194;-49
2021/12/24 14:30:58;;;;;;;21.20;12.32;;;;;;;;;;5092419;28;20251;-49
2021/12/24 14:33:24;;;;;;;18.80;11.10;;;;;;;;;;5091233;28;20166;-49
2021/12/24 14:35:52;;;;;;;19.48;11.20;;;;;;;;;;5092360;28;20231;-49
2021/12/24 14:38:18;;;;;;;19.42;10.25;;;;;;;;;;5086716;28;20178;-49
2021/12/24 14:40:46;;;;;;;14.85;9.93;;;;;;;;;;5093564;28;20219;-49
2021/12/24 14:43:14;;;;;;;16.60;9.95;;;;;;;;;;5089926;28;20261;-49
2021/12/24 14:45:41;;;;;;;13.25;8.73;;;;;;;;;;5092758;28;20255;-48
2021/12/24 14:48:09;;;;;;;17.60;9.48;;;;;;;;;;5111463;27;20201;-48
2021/12/24 14:50:36;;;;;;;13.57;9.15;;;;;;;;;;5111680;28;20576;-49
2021/12/24 14:53:10;;;;;;;18.60;8.70;;;;;;;;;;5111398;28;20481;-49
2021/12/24 14:55:40;;;;;;;15.15;8.52;;;;;;;;;;5110825;28;20594;-49
2021/12/24 14:58:06;;;;;;;16.65;9.07;;;;;;;;;;5111066;28;20185;-49
2021/12/24 15:00:34;;;;;;;13.73;8.35;;;;;;;;;;5112999;28;20185;-49
2021/12/24 15:03:08;;;;;;;15.20;8.07;;;;;;;;;;5112056;28;20177;-49
2021/12/24 15:05:36;;;;;;;13.00;7.78;;;;;;;;;;5106305;28;20268;-49
2021/12/24 15:08:12;;;;;;;11.38;7.32;;;;;;;;;;5110407;28;20262;-49
2021/12/24 15:10:38;;;;;;;14.15;7.13;;;;;;;;;;5111137;28;20181;-49
2021/12/24 15:13:13;;;;;;;10.07;6.80;;;;;;;;;;5110798;28;20650;-49
2021/12/24 15:15:40;;;;;;;11.80;6.63;;;;;;;;;;5110784;28;20184;-49
2021/12/24 15:18:06;;;;;;;13.40;6.78;;;;;;;;;;5110788;28;20609;-49
2021/12/24 15:20:32;;;;;;;10.50;6.30;;;;;;;;;;5113413;28;20580;-49
2021/12/24 15:22:59;;;;;;;9.70;6.47;;;;;;;;;;5112254;28;20443;-49
2021/12/24 15:25:25;;;;;;;10.68;6.38;;;;;;;;;;5111361;28;20484;-49
2021/12/24 15:27:54;;;;;;;9.75;5.95;;;;;;;;;;5110868;28;20199;-49
2021/12/24 15:30:20;;;;;;;9.65;6.15;;;;;;;;;;5112988;28;20338;-49
2021/12/24 15:32:46;;;;;;;8.40;5.75;;;;;;;;;;5107209;28;20177;-49
2021/12/24 15:35:12;;;;;;;8.15;5.82;;;;;;;;;;5110815;28;20177;-49
2021/12/24 15:37:39;;;;;;;8.40;5.47;;;;;;;;;;5111075;28;20204;-49
2021/12/24 15:40:05;;;;;;;8.93;5.15;;;;;;;;;;5112224;28;20177;-49
2021/12/24 15:42:31;;;;;;;7.88;5.47;;;;;;;;;;5112022;28;20178;-49
2021/12/24 15:44:57;;;;;;;7.90;4.97;;;;;;;;;;5107045;28;20269;-49
2021/12/24 15:47:23;;;;;;;8.75;5.45;;;;;;;;;;5096798;28;20209;-49
2021/12/24 15:49:49;;;;;;;7.32;4.50;;;;;;;;;;5089267;28;20217;-49
2021/12/24 15:52:15;;;;;;;8.35;4.88;;;;;;;;;;5090126;28;20186;-49
2021/12/24 15:54:41;;;;;;;7.25;4.40;;;;;;;;;;5091747;28;20479;-49
2021/12/24 15:57:07;;;;;;;7.10;4.18;;;;;;;;;;5087700;28;20189;-49
2021/12/24 15:59:35;;;;;;;6.07;4.15;;;;;;;;;;5091198;28;20186;-49
2021/12/24 16:02:01;;;;;;;6.80;3.92;;;;;;;;;;5090381;28;20182;-49
2021/12/24 16:04:28;;;;;;;7.72;4.50;;;;;;;;;;5094375;28;20193;-49
2021/12/24 16:06:54;;;;;;;7.43;4.68;;;;;;;;;;5093937;28;20193;-49
2021/12/24 16:09:21;;;;;;;7.20;4.38;;;;;;;;;;5092521;28;20649;-49
2021/12/24 16:11:48;;;;;;;8.82;4.50;;;;;;;;;;5088202;28;20520;-49
2021/12/24 16:14:15;;;;;;;9.02;4.13;;;;;;;;;;5099318;28;20186;-49
2021/12/24 16:16:44;;;;;;;8.80;4.40;;;;;;;;;;5099416;28;20204;-49
2021/12/24 16:19:11;;;;;;;7.28;3.83;;;;;;;;;;5099092;28;20196;-49
2021/12/24 16:21:37;;;;;;;6.55;3.97;;;;;;;;;;5099251;28;20201;-49